Bookmark and Share
Track history (hours):
 

Avalon Express

More information available from US FCC via Universal Licensing System and Coast Guard Vessel Documentation Center.

Last reported at 2014-Apr-16 19:34 UTC. Time now 2014-Apr-18 03:14 UTC.
Position N 33°37' W 118°20'.

Type: High speed craft. MMSI: 367192940.

NotesDate/timePositionNaut miles runAvg speedWind from/ knotsBaromVisibWave heightAir tempDewpointWater temp
2014-Apr-16 19:34N 33°37' W 118°20'  
2014-Apr-12 05:12N 33°43' W 118°16'1924.0
2014-Apr-12 04:25N 33°24' W 118°19'13 7.1
2014-Apr-12 02:34N 33°38' W 118°19'8 7.6
2014-Apr-12 01:34N 33°45' W 118°16'1717.5
2014-Apr-12 00:34N 33°27' W 118°18'5 4.6
2014-Apr-11 23:34N 33°23' W 118°19'2221.5
2014-Apr-11 22:33N 33°44' W 118°17'1 0.5
2014-Apr-11 21:33N 33°45' W 118°16'3 3.3
2014-Apr-11 20:33N 33°42' W 118°16'1913.1
2014-Apr-11 19:06N 33°28' W 118°31'2 1.9
2014-Apr-11 18:07N 33°27' W 118°29'1425.5
2014-Apr-11 17:34N 33°38' W 118°18'7 7.2
2014-Apr-11 16:34N 33°45' W 118°16'0 0.0
2014-Apr-11 15:34N 33°45' W 118°16'0 0.0
2014-Apr-11 14:22N 33°45' W 118°16'0 0.0
2014-Apr-11 13:33N 33°45' W 118°16'  
2014-Apr-09 01:22N 33°44' W 118°16'1820.7
2014-Apr-09 00:32N 33°26' W 118°18'10 5.1
2014-Apr-08 22:33N 33°36' W 118°20'8 2.5
2014-Apr-08 19:25N 33°43' W 118°16'2211.8
2014-Apr-08 17:33N 33°22' W 118°20'1515.1
2014-Apr-08 16:33N 33°37' W 118°16'8 8.4
2014-Apr-08 15:33N 33°45' W 118°16'0 0.0
2014-Apr-08 14:32N 33°45' W 118°16'0 0.0
2014-Apr-08 01:33N 33°45' W 118°16'1919.5
2014-Apr-08 00:34N 33°26' W 118°18'8 8.2
2014-Apr-07 23:33N 33°27' W 118°28'1212.4
2014-Apr-07 22:34N 33°37' W 118°20'8 8.4
2014-Apr-07 21:33N 33°45' W 118°16'0 0.0
2014-Apr-07 20:33N 33°45' W 118°16'7 6.6
2014-Apr-07 19:34N 33°38' W 118°18'3 1.3
2014-Apr-07 17:34N 33°37' W 118°21'8 7.9
2014-Apr-07 16:31N 33°45' W 118°16'0 0.0
2014-Apr-07 15:33N 33°45' W 118°16'0 0.0
2014-Apr-07 14:33N 33°45' W 118°16'0 0.0
2014-Apr-07 13:33N 33°45' W 118°16'0 0.0
2014-Apr-07 12:33N 33°45' W 118°16'0 0.0
2014-Apr-07 11:33N 33°45' W 118°16'0 0.0
2014-Apr-07 10:33N 33°45' W 118°16'0 0.0
2014-Apr-07 09:33N 33°45' W 118°16'0 0.0
2014-Apr-07 08:33N 33°45' W 118°16'0 0.0
2014-Apr-07 07:33N 33°45' W 118°16'0 0.0
2014-Apr-07 06:33N 33°45' W 118°16'0 0.0
2014-Apr-07 05:33N 33°45' W 118°16'0 0.0
2014-Apr-07 04:33N 33°45' W 118°16'0 0.0
2014-Apr-07 03:32N 33°45' W 118°16'0 0.0
2014-Apr-07 02:33N 33°45' W 118°16'1 1.0
2014-Apr-07 01:33N 33°44' W 118°16'2121.2
2014-Apr-07 00:34N 33°23' W 118°19'2 2.5
2014-Apr-06 23:34N 33°25' W 118°18'2019.5
2014-Apr-06 22:34N 33°45' W 118°16'1 0.9
2014-Apr-06 21:34N 33°44' W 118°16'  

Dump ship's entire track history

sailing weather and tide predictions

Avalon Express — WDD7919 — position and weather